createdAt,value
2023-04-02T10:14:55.868Z,20.10
2023-04-02T10:17:23.355Z,20.25
2023-04-02T10:19:55.982Z,20.33
2023-04-02T10:22:22.681Z,20.39
2023-04-02T10:24:49.290Z,20.87
2023-04-02T10:31:04.448Z,21.78
2023-04-02T10:33:34.745Z,21.13
2023-04-02T10:36:19.377Z,20.95
2023-04-02T10:38:51.099Z,20.84
2023-04-02T10:41:26.672Z,20.78
2023-04-02T10:43:59.251Z,20.72
2023-04-02T10:46:27.465Z,20.72
2023-04-02T10:48:57.189Z,20.71
2023-04-02T10:51:23.391Z,20.69
2023-04-02T10:53:49.579Z,20.67
2023-04-02T10:56:16.062Z,20.79
2023-04-02T10:58:56.236Z,20.76
2023-04-02T11:01:29.142Z,20.82
2023-04-02T11:03:58.780Z,20.77
2023-04-02T11:06:43.985Z,20.80
2023-04-02T11:09:16.513Z,20.78
2023-04-02T13:02:18.405Z,16.47
2023-04-02T13:12:32.079Z,17.16
2023-04-02T13:17:29.673Z,17.11
2023-04-02T13:19:56.066Z,17.21
2023-04-02T13:26:56.918Z,17.70
2023-04-02T13:29:25.016Z,17.27
2023-04-02T13:31:52.595Z,16.93
2023-04-02T13:34:19.186Z,16.65
2023-04-02T13:36:45.826Z,16.54
2023-04-02T13:39:12.237Z,16.49
2023-04-02T13:41:49.921Z,16.44
2023-04-02T13:44:19.406Z,16.35
2023-04-02T13:46:46.444Z,16.27
2023-04-02T13:49:12.887Z,16.21
2023-04-02T13:51:41.916Z,16.17
2023-04-02T13:54:15.231Z,16.15
2023-04-02T13:56:41.850Z,16.11
2023-04-02T13:59:08.284Z,16.10
2023-04-02T14:01:35.130Z,16.09
2023-04-02T14:04:02.577Z,16.05
2023-04-02T14:06:44.780Z,16.03
2023-04-02T14:09:21.330Z,16.00
2023-04-02T14:12:00.024Z,16.00
2023-04-02T14:14:38.096Z,15.99
2023-04-02T14:17:40.798Z,15.97
2023-04-02T14:20:12.304Z,15.96
2023-04-02T14:22:38.730Z,15.95
2023-04-02T14:25:14.986Z,15.95
2023-04-02T14:27:42.183Z,15.94
2023-04-02T14:30:08.642Z,15.93
2023-04-02T14:32:44.125Z,15.91
2023-04-02T14:35:13.492Z,15.92
2023-04-02T14:37:45.763Z,15.90
2023-04-02T14:40:21.499Z,15.89
2023-04-02T14:42:53.826Z,15.87
2023-04-02T14:45:43.880Z,15.87
2023-04-02T14:48:13.001Z,15.87
2023-04-02T14:50:41.076Z,15.85
2023-04-02T14:53:11.809Z,15.83
2023-04-02T14:55:43.780Z,15.86
2023-04-02T14:58:15.216Z,15.83
2023-04-02T15:00:44.045Z,15.85
2023-04-02T15:03:21.429Z,15.83
2023-04-02T15:05:49.688Z,15.82
2023-04-02T15:08:16.132Z,15.82
2023-04-02T15:10:54.221Z,15.83
2023-04-02T15:13:22.992Z,15.82
2023-04-02T15:15:52.705Z,15.81
2023-04-02T15:18:19.200Z,15.81
2023-04-02T15:20:48.340Z,15.79
2023-04-02T15:23:32.273Z,15.81
2023-04-02T15:26:05.364Z,15.80
2023-04-02T15:28:38.262Z,15.80
2023-04-02T15:31:11.490Z,15.79
2023-04-02T15:33:37.939Z,15.82
2023-04-02T15:36:04.447Z,15.83
2023-04-02T15:38:38.310Z,15.84
2023-04-02T15:41:10.661Z,15.86
2023-04-02T15:43:56.670Z,15.88
2023-04-02T15:46:38.028Z,15.89
2023-04-02T15:49:08.976Z,15.91
2023-04-02T15:51:35.362Z,15.92
2023-04-02T15:54:10.080Z,15.92
2023-04-02T15:56:55.491Z,15.94
2023-04-02T15:59:22.182Z,15.94
2023-04-02T16:01:59.674Z,15.95
2023-04-02T16:04:37.619Z,15.95
2023-04-02T16:07:04.081Z,15.96
2023-04-02T16:09:39.770Z,15.97
2023-04-02T16:12:13.678Z,15.96
2023-04-02T16:14:41.134Z,15.96
2023-04-02T16:17:23.668Z,15.95
2023-04-02T16:19:53.113Z,15.93
2023-04-02T16:22:22.958Z,15.94
